< < Back
Terminal Aerodrome Forecast


Current Version              Previous Versions:   1  2  3  4  5  6  7  8  9  

Terminal Aerodrome Forecast

846
FTUS42 KILM 250520
TAFILM
TAF
KILM 250520Z 2506/2606 00000KT P6SM SKC
      TEMPO 2508/2510 4SM BR
     FM251000 04003KT P6SM BKN009 BKN015
     FM251200 04007KT P6SM BKN015
     FM251400 08009KT P6SM VCSH SCT020 BKN050
     FM260100 06007KT P6SM BKN020=



Latest METAR

196
SAUS70 KWBC 252156
MTRILM
METAR KILM 252153Z 08009KT 10SM FEW023 BKN029 OVC036 25/21 A3007 RMK AO2
SLP183 T02500211


USA.gov is the U.S. government's official web portal to all federal, state and local government web resources and services.